createdAt,value
2022-11-19T00:04:58.508Z,3.50
2022-11-19T00:12:18.820Z,4.05
2022-11-19T00:19:20.800Z,9.48
2022-11-19T00:26:22.667Z,4.10
2022-11-19T00:33:24.250Z,4.13
2022-11-19T00:40:25.844Z,4.70
2022-11-19T00:47:27.396Z,4.03
2022-11-19T00:54:28.956Z,4.38
2022-11-19T01:01:30.562Z,5.40
2022-11-19T01:08:32.208Z,5.57
2022-11-19T01:15:33.749Z,4.47
2022-11-19T01:22:35.423Z,4.07
2022-11-19T01:29:36.976Z,4.03
2022-11-19T01:36:38.534Z,5.22
2022-11-19T01:43:41.152Z,4.20
2022-11-19T01:50:51.272Z,3.85
2022-11-19T01:57:55.908Z,5.83
2022-11-19T02:04:57.498Z,3.95
2022-11-19T02:12:48.065Z,6.15
2022-11-19T02:20:20.620Z,4.18
2022-11-19T02:27:49.899Z,5.13
2022-11-19T02:35:22.386Z,3.38
2022-11-19T02:42:31.795Z,4.55
2022-11-19T02:49:34.303Z,4.30
2022-11-19T02:56:44.877Z,6.28
2022-11-19T03:04:04.842Z,7.70
2022-11-19T03:11:15.385Z,9.47
2022-11-19T03:18:22.398Z,9.98
2022-11-19T03:25:49.432Z,8.20
2022-11-19T03:32:59.008Z,8.80
2022-11-19T03:40:00.744Z,8.23
2022-11-19T03:47:05.180Z,8.27
2022-11-19T03:54:06.766Z,9.13
2022-11-19T04:01:08.501Z,10.68
2022-11-19T04:08:10.081Z,14.77
2022-11-19T04:15:12.817Z,10.27
2022-11-19T04:22:14.400Z,9.02
2022-11-19T04:29:16.080Z,14.38
2022-11-19T04:36:17.747Z,11.80
2022-11-19T04:43:19.294Z,21.70
2022-11-19T04:50:20.844Z,13.70
2022-11-19T04:57:22.445Z,13.93
2022-11-19T05:04:23.987Z,12.07
2022-11-19T05:11:25.556Z,11.98
2022-11-19T05:18:27.202Z,8.05
2022-11-19T05:25:28.792Z,11.18
2022-11-19T05:32:30.373Z,8.30
2022-11-19T05:39:31.909Z,7.35
2022-11-19T05:46:33.491Z,9.50
2022-11-19T05:53:35.051Z,19.90
2022-11-19T06:00:36.636Z,9.32
2022-11-19T06:07:38.331Z,4.47
2022-11-19T06:14:40.014Z,5.97
2022-11-19T06:21:41.553Z,5.55
2022-11-19T06:28:43.127Z,6.13
2022-11-19T06:35:44.725Z,5.35
2022-11-19T06:42:50.774Z,5.45
2022-11-19T06:49:52.704Z,4.47
2022-11-19T06:56:54.237Z,6.47
2022-11-19T07:03:55.874Z,6.15
2022-11-19T07:10:57.435Z,5.45
2022-11-19T07:17:59.017Z,4.00
2022-11-19T07:25:00.563Z,3.85
2022-11-19T07:32:02.252Z,5.18
2022-11-19T07:39:04.977Z,3.22
2022-11-19T07:46:06.677Z,3.17
2022-11-19T07:53:11.216Z,4.30
2022-11-19T08:00:13.302Z,4.30
2022-11-19T08:07:14.874Z,3.90
2022-11-19T08:14:16.426Z,4.03
2022-11-19T08:21:17.994Z,3.85
2022-11-19T08:28:19.557Z,4.32
2022-11-19T08:35:21.874Z,2.97
2022-11-19T08:42:42.039Z,3.15
2022-11-19T08:49:43.592Z,2.63
2022-11-19T08:56:45.163Z,3.15
2022-11-19T09:03:46.785Z,4.97
2022-11-19T09:10:48.357Z,3.40
2022-11-19T09:17:49.902Z,2.42
2022-11-19T09:24:51.538Z,3.00
2022-11-19T09:31:53.089Z,2.25
2022-11-19T09:38:57.849Z,2.25
2022-11-19T09:46:07.724Z,3.40
2022-11-19T09:53:13.077Z,2.55
2022-11-19T10:00:20.445Z,2.35
2022-11-19T10:07:41.100Z,2.47
2022-11-19T10:15:21.383Z,2.47
2022-11-19T10:22:27.405Z,2.83
2022-11-19T10:29:29.492Z,2.63
2022-11-19T10:36:42.312Z,2.38
2022-11-19T10:43:50.562Z,3.20
2022-11-19T10:50:52.259Z,2.75
2022-11-19T10:58:06.909Z,2.42
2022-11-19T11:05:11.509Z,2.72
2022-11-19T11:12:32.820Z,2.40
2022-11-19T11:19:34.483Z,5.75
2022-11-19T11:26:37.802Z,2.88
2022-11-19T11:33:40.678Z,3.50
2022-11-19T11:41:35.294Z,2.65
2022-11-19T11:48:22.269Z,2.97
2022-11-19T11:55:23.750Z,2.60
2022-11-19T12:02:32.647Z,2.92
2022-11-19T12:10:16.330Z,3.35
2022-11-19T12:18:12.150Z,3.50
2022-11-19T12:26:00.496Z,3.00
2022-11-19T12:33:08.175Z,3.13
2022-11-19T12:40:38.829Z,4.47
2022-11-19T12:48:03.840Z,3.38
2022-11-19T12:55:27.512Z,3.80
2022-11-19T13:02:30.063Z,4.63
2022-11-19T13:09:38.074Z,7.25
2022-11-19T13:16:39.688Z,5.10
2022-11-19T13:23:42.494Z,3.40
2022-11-19T13:30:44.983Z,3.78
2022-11-19T13:38:07.825Z,3.83
2022-11-19T13:45:16.423Z,4.93
2022-11-19T13:52:29.083Z,3.75
2022-11-19T13:59:40.520Z,5.38
2022-11-19T14:06:56.774Z,3.47
2022-11-19T14:14:41.927Z,4.15
2022-11-19T14:22:19.812Z,4.25
2022-11-19T14:29:27.495Z,4.22
2022-11-19T14:36:56.083Z,4.35
2022-11-19T14:44:09.856Z,4.57
2022-11-19T14:51:12.507Z,3.88
2022-11-19T14:58:21.941Z,5.28
2022-11-19T15:05:26.980Z,3.45
2022-11-19T15:12:43.696Z,3.53
2022-11-19T15:19:50.695Z,4.90
2022-11-19T15:27:00.201Z,4.18
2022-11-19T15:35:09.294Z,4.55
2022-11-19T15:42:16.845Z,5.28
2022-11-19T15:49:23.172Z,2.70
2022-11-19T15:56:25.075Z,4.68
2022-11-19T16:03:26.683Z,3.97
2022-11-19T16:10:29.327Z,4.53
2022-11-19T16:17:43.026Z,5.00
2022-11-19T16:25:03.715Z,6.07
2022-11-19T16:32:05.597Z,4.43
2022-11-19T16:39:09.666Z,4.72
2022-11-19T16:46:16.563Z,4.18
2022-11-19T16:53:18.100Z,4.72
2022-11-19T17:00:30.646Z,3.75
2022-11-19T17:07:32.263Z,3.90
2022-11-19T17:14:39.792Z,3.92
2022-11-19T17:21:41.378Z,5.10
2022-11-19T17:28:47.672Z,4.15
2022-11-19T17:35:49.323Z,5.60
2022-11-19T17:43:09.342Z,5.15
2022-11-19T17:50:10.916Z,3.70
2022-11-19T17:57:12.509Z,4.97
2022-11-19T18:04:14.249Z,4.07
2022-11-19T18:11:17.946Z,4.45
2022-11-19T18:18:19.534Z,5.57
2022-11-19T18:25:21.903Z,5.68
2022-11-19T18:32:23.483Z,5.60
2022-11-19T18:39:25.337Z,4.72
2022-11-19T18:46:26.943Z,4.80
2022-11-19T18:53:28.534Z,5.47
2022-11-19T19:00:30.213Z,4.93
2022-11-19T19:07:33.052Z,5.00
2022-11-19T19:14:34.618Z,5.32
2022-11-19T19:21:36.188Z,4.13
2022-11-19T19:28:38.829Z,7.03
2022-11-19T19:35:40.679Z,6.10
2022-11-19T19:42:42.409Z,5.00
2022-11-19T19:49:44.035Z,6.85
2022-11-19T19:56:45.609Z,6.60
2022-11-19T20:03:53.076Z,5.88
2022-11-19T20:10:56.066Z,5.45
2022-11-19T20:17:57.624Z,5.03
2022-11-19T20:24:59.200Z,5.25
2022-11-19T20:32:00.764Z,7.05
2022-11-19T20:39:02.537Z,5.03
2022-11-19T20:46:13.849Z,5.47
2022-11-19T20:53:15.441Z,5.45
2022-11-19T21:00:17.719Z,4.70
2022-11-19T21:07:19.417Z,6.10
2022-11-19T21:14:21.039Z,5.72
2022-11-19T21:21:24.129Z,5.10
2022-11-19T21:28:25.685Z,6.38
2022-11-19T21:35:27.264Z,6.63
2022-11-19T21:42:28.934Z,6.20
2022-11-19T21:49:30.516Z,4.60
2022-11-19T21:56:38.003Z,7.30
2022-11-19T22:03:40.275Z,5.88
2022-11-19T22:10:45.486Z,9.73
2022-11-19T22:17:47.356Z,7.65
2022-11-19T22:24:48.916Z,7.55
2022-11-19T22:31:50.630Z,8.25
2022-11-19T22:38:52.262Z,6.18
2022-11-19T22:45:53.852Z,6.45
2022-11-19T22:52:55.463Z,6.68
2022-11-19T22:59:57.090Z,8.13
2022-11-19T23:06:58.734Z,5.68
2022-11-19T23:14:00.374Z,6.35
2022-11-19T23:21:06.943Z,8.90
2022-11-19T23:28:08.507Z,7.07
2022-11-19T23:35:10.131Z,6.22
2022-11-19T23:42:11.715Z,7.60
2022-11-19T23:49:14.473Z,6.32
2022-11-19T23:56:16.728Z,7.32
